sensor_id;sensor_type;location;lat;lon;timestamp;P1;durP1;ratioP1;P2;durP2;ratioP2
78873;SDS011;68250;43.514;1.494;2023-08-08T00:00:46;4.93;;;0.95;;
78873;SDS011;68250;43.514;1.494;2023-08-08T00:03:12;4.15;;;1.17;;
78873;SDS011;68250;43.514;1.494;2023-08-08T00:05:38;3.83;;;1.03;;
78873;SDS011;68250;43.514;1.494;2023-08-08T00:08:04;4.82;;;1.00;;
78873;SDS011;68250;43.514;1.494;2023-08-08T00:10:30;5.05;;;1.17;;
78873;SDS011;68250;43.514;1.494;2023-08-08T00:12:56;4.83;;;1.20;;
78873;SDS011;68250;43.514;1.494;2023-08-08T00:15:38;3.80;;;1.07;;
78873;SDS011;68250;43.514;1.494;2023-08-08T00:18:27;5.03;;;1.20;;
78873;SDS011;68250;43.514;1.494;2023-08-08T00:21:00;5.13;;;1.10;;
78873;SDS011;68250;43.514;1.494;2023-08-08T00:23:28;4.20;;;1.20;;
78873;SDS011;68250;43.514;1.494;2023-08-08T00:31:46;4.00;;;0.88;;
78873;SDS011;68250;43.514;1.494;2023-08-08T00:35:05;6.10;;;1.10;;
78873;SDS011;68250;43.514;1.494;2023-08-08T00:41:55;5.10;;;1.30;;
78873;SDS011;68250;43.514;1.494;2023-08-08T00:47:44;4.90;;;1.10;;
78873;SDS011;68250;43.514;1.494;2023-08-08T00:50:30;4.18;;;1.13;;
78873;SDS011;68250;43.514;1.494;2023-08-08T00:52:55;4.73;;;1.40;;
78873;SDS011;68250;43.514;1.494;2023-08-08T00:55:21;3.65;;;1.02;;
78873;SDS011;68250;43.514;1.494;2023-08-08T00:57:49;4.73;;;1.30;;
78873;SDS011;68250;43.514;1.494;2023-08-08T01:00:29;3.25;;;1.02;;
78873;SDS011;68250;43.514;1.494;2023-08-08T01:02:54;4.63;;;1.30;;
78873;SDS011;68250;43.514;1.494;2023-08-08T01:08:27;5.43;;;1.10;;
78873;SDS011;68250;43.514;1.494;2023-08-08T01:10:58;3.35;;;1.30;;
78873;SDS011;68250;43.514;1.494;2023-08-08T01:13:30;5.50;;;1.20;;
78873;SDS011;68250;43.514;1.494;2023-08-08T01:15:57;4.35;;;1.00;;
78873;SDS011;68250;43.514;1.494;2023-08-08T01:18:23;4.65;;;1.20;;
78873;SDS011;68250;43.514;1.494;2023-08-08T01:20:56;4.10;;;1.00;;
78873;SDS011;68250;43.514;1.494;2023-08-08T01:30:14;3.92;;;1.00;;
78873;SDS011;68250;43.514;1.494;2023-08-08T01:32:40;4.22;;;1.08;;
78873;SDS011;68250;43.514;1.494;2023-08-08T01:35:06;4.50;;;1.13;;
78873;SDS011;68250;43.514;1.494;2023-08-08T01:37:35;4.97;;;1.10;;
78873;SDS011;68250;43.514;1.494;2023-08-08T01:40:01;4.97;;;1.38;;
78873;SDS011;68250;43.514;1.494;2023-08-08T01:42:28;5.32;;;1.35;;
78873;SDS011;68250;43.514;1.494;2023-08-08T01:44:54;3.83;;;0.98;;
78873;SDS011;68250;43.514;1.494;2023-08-08T01:47:20;4.63;;;1.23;;
78873;SDS011;68250;43.514;1.494;2023-08-08T01:49:46;4.77;;;1.00;;
78873;SDS011;68250;43.514;1.494;2023-08-08T01:52:12;4.72;;;1.25;;
78873;SDS011;68250;43.514;1.494;2023-08-08T01:54:37;3.80;;;1.00;;
78873;SDS011;68250;43.514;1.494;2023-08-08T01:57:03;5.18;;;1.00;;
78873;SDS011;68250;43.514;1.494;2023-08-08T01:59:29;3.80;;;0.98;;
78873;SDS011;68250;43.514;1.494;2023-08-08T02:01:55;5.43;;;1.13;;
78873;SDS011;68250;43.514;1.494;2023-08-08T02:04:20;3.60;;;1.10;;
78873;SDS011;68250;43.514;1.494;2023-08-08T02:06:46;4.88;;;1.08;;
78873;SDS011;68250;43.514;1.494;2023-08-08T02:09:11;4.03;;;0.90;;
78873;SDS011;68250;43.514;1.494;2023-08-08T02:11:40;3.67;;;1.23;;
78873;SDS011;68250;43.514;1.494;2023-08-08T02:14:05;3.58;;;1.15;;
78873;SDS011;68250;43.514;1.494;2023-08-08T02:16:31;6.67;;;1.27;;
78873;SDS011;68250;43.514;1.494;2023-08-08T02:18:57;4.82;;;1.02;;
78873;SDS011;68250;43.514;1.494;2023-08-08T02:21:22;3.38;;;0.88;;
78873;SDS011;68250;43.514;1.494;2023-08-08T02:23:48;5.87;;;1.30;;
78873;SDS011;68250;43.514;1.494;2023-08-08T02:26:13;4.57;;;1.10;;
78873;SDS011;68250;43.514;1.494;2023-08-08T02:28:39;3.97;;;1.07;;
78873;SDS011;68250;43.514;1.494;2023-08-08T02:31:06;4.93;;;1.10;;
78873;SDS011;68250;43.514;1.494;2023-08-08T02:33:31;4.83;;;1.10;;
78873;SDS011;68250;43.514;1.494;2023-08-08T02:35:57;5.40;;;1.08;;
78873;SDS011;68250;43.514;1.494;2023-08-08T02:38:23;3.80;;;1.10;;
78873;SDS011;68250;43.514;1.494;2023-08-08T02:40:48;4.38;;;0.90;;
78873;SDS011;68250;43.514;1.494;2023-08-08T02:43:14;4.07;;;1.00;;
78873;SDS011;68250;43.514;1.494;2023-08-08T02:45:39;4.40;;;1.20;;
78873;SDS011;68250;43.514;1.494;2023-08-08T02:48:05;4.50;;;1.30;;
78873;SDS011;68250;43.514;1.494;2023-08-08T02:50:31;3.80;;;1.10;;
78873;SDS011;68250;43.514;1.494;2023-08-08T02:52:56;4.03;;;1.10;;
78873;SDS011;68250;43.514;1.494;2023-08-08T02:55:22;3.80;;;1.00;;
78873;SDS011;68250;43.514;1.494;2023-08-08T02:57:48;6.57;;;1.25;;
78873;SDS011;68250;43.514;1.494;2023-08-08T03:00:13;4.03;;;1.10;;
78873;SDS011;68250;43.514;1.494;2023-08-08T03:02:39;3.33;;;0.90;;
78873;SDS011;68250;43.514;1.494;2023-08-08T03:05:05;4.07;;;1.00;;
78873;SDS011;68250;43.514;1.494;2023-08-08T03:07:31;4.75;;;0.98;;
78873;SDS011;68250;43.514;1.494;2023-08-08T03:09:56;3.43;;;1.20;;
78873;SDS011;68250;43.514;1.494;2023-08-08T03:12:22;5.00;;;1.20;;
78873;SDS011;68250;43.514;1.494;2023-08-08T03:14:48;5.17;;;0.90;;
78873;SDS011;68250;43.514;1.494;2023-08-08T03:17:13;5.20;;;1.30;;
78873;SDS011;68250;43.514;1.494;2023-08-08T03:19:39;3.67;;;1.00;;
78873;SDS011;68250;43.514;1.494;2023-08-08T03:22:04;3.80;;;1.10;;
78873;SDS011;68250;43.514;1.494;2023-08-08T03:24:30;4.78;;;0.90;;
78873;SDS011;68250;43.514;1.494;2023-08-08T03:26:56;4.07;;;1.10;;
78873;SDS011;68250;43.514;1.494;2023-08-08T03:29:21;3.67;;;1.10;;
78873;SDS011;68250;43.514;1.494;2023-08-08T03:31:47;3.40;;;0.90;;
78873;SDS011;68250;43.514;1.494;2023-08-08T03:34:12;3.50;;;1.07;;
78873;SDS011;68250;43.514;1.494;2023-08-08T03:36:38;3.85;;;1.00;;
78873;SDS011;68250;43.514;1.494;2023-08-08T03:39:03;3.83;;;1.00;;
78873;SDS011;68250;43.514;1.494;2023-08-08T03:41:29;3.83;;;0.90;;
78873;SDS011;68250;43.514;1.494;2023-08-08T03:43:55;3.77;;;1.00;;
78873;SDS011;68250;43.514;1.494;2023-08-08T03:46:22;5.25;;;1.00;;
78873;SDS011;68250;43.514;1.494;2023-08-08T03:48:47;5.10;;;1.10;;
78873;SDS011;68250;43.514;1.494;2023-08-08T03:51:13;4.10;;;1.17;;
78873;SDS011;68250;43.514;1.494;2023-08-08T03:53:38;3.93;;;0.90;;
78873;SDS011;68250;43.514;1.494;2023-08-08T03:56:04;4.30;;;1.05;;
78873;SDS011;68250;43.514;1.494;2023-08-08T03:58:30;5.87;;;1.10;;
78873;SDS011;68250;43.514;1.494;2023-08-08T04:00:55;5.13;;;1.10;;
78873;SDS011;68250;43.514;1.494;2023-08-08T04:03:21;4.03;;;1.00;;
78873;SDS011;68250;43.514;1.494;2023-08-08T04:05:47;6.40;;;1.23;;
78873;SDS011;68250;43.514;1.494;2023-08-08T04:08:13;4.00;;;1.07;;
78873;SDS011;68250;43.514;1.494;2023-08-08T04:10:39;3.55;;;1.08;;
78873;SDS011;68250;43.514;1.494;2023-08-08T04:13:05;4.30;;;1.07;;
78873;SDS011;68250;43.514;1.494;2023-08-08T04:15:31;4.78;;;1.27;;
78873;SDS011;68250;43.514;1.494;2023-08-08T04:17:56;4.03;;;1.10;;
78873;SDS011;68250;43.514;1.494;2023-08-08T04:20:22;3.92;;;1.08;;
78873;SDS011;68250;43.514;1.494;2023-08-08T04:22:47;3.83;;;1.17;;
78873;SDS011;68250;43.514;1.494;2023-08-08T04:25:13;4.77;;;1.20;;
78873;SDS011;68250;43.514;1.494;2023-08-08T04:27:40;3.15;;;0.80;;
78873;SDS011;68250;43.514;1.494;2023-08-08T04:30:06;3.55;;;1.10;;
78873;SDS011;68250;43.514;1.494;2023-08-08T04:32:32;3.58;;;1.00;;
78873;SDS011;68250;43.514;1.494;2023-08-08T04:34:57;4.43;;;1.23;;
78873;SDS011;68250;43.514;1.494;2023-08-08T04:37:23;3.40;;;1.07;;
78873;SDS011;68250;43.514;1.494;2023-08-08T04:39:49;5.28;;;1.10;;
78873;SDS011;68250;43.514;1.494;2023-08-08T04:42:14;5.80;;;1.13;;
78873;SDS011;68250;43.514;1.494;2023-08-08T04:44:40;4.07;;;1.30;;
78873;SDS011;68250;43.514;1.494;2023-08-08T04:47:06;4.20;;;1.10;;
78873;SDS011;68250;43.514;1.494;2023-08-08T04:49:31;4.75;;;1.25;;
78873;SDS011;68250;43.514;1.494;2023-08-08T04:51:57;6.15;;;1.17;;
78873;SDS011;68250;43.514;1.494;2023-08-08T04:54:22;6.20;;;1.10;;
78873;SDS011;68250;43.514;1.494;2023-08-08T04:56:48;5.03;;;1.17;;
78873;SDS011;68250;43.514;1.494;2023-08-08T04:59:14;5.10;;;0.90;;
78873;SDS011;68250;43.514;1.494;2023-08-08T05:01:39;3.83;;;1.00;;
78873;SDS011;68250;43.514;1.494;2023-08-08T05:04:05;5.17;;;1.07;;
78873;SDS011;68250;43.514;1.494;2023-08-08T05:06:31;5.13;;;1.15;;
78873;SDS011;68250;43.514;1.494;2023-08-08T05:08:57;4.10;;;1.15;;
78873;SDS011;68250;43.514;1.494;2023-08-08T05:11:23;5.05;;;1.00;;
78873;SDS011;68250;43.514;1.494;2023-08-08T05:13:48;5.72;;;1.30;;
78873;SDS011;68250;43.514;1.494;2023-08-08T05:16:14;4.78;;;1.13;;
78873;SDS011;68250;43.514;1.494;2023-08-08T05:18:40;4.97;;;1.17;;
78873;SDS011;68250;43.514;1.494;2023-08-08T05:21:06;5.07;;;1.10;;
78873;SDS011;68250;43.514;1.494;2023-08-08T05:23:32;4.45;;;1.15;;
78873;SDS011;68250;43.514;1.494;2023-08-08T05:25:58;4.07;;;1.07;;
78873;SDS011;68250;43.514;1.494;2023-08-08T05:28:23;3.92;;;1.10;;
78873;SDS011;68250;43.514;1.494;2023-08-08T05:30:49;3.75;;;1.17;;
78873;SDS011;68250;43.514;1.494;2023-08-08T05:33:15;5.87;;;1.20;;
78873;SDS011;68250;43.514;1.494;2023-08-08T05:35:40;7.13;;;1.63;;
78873;SDS011;68250;43.514;1.494;2023-08-08T05:38:06;4.47;;;1.17;;
78873;SDS011;68250;43.514;1.494;2023-08-08T05:40:35;4.30;;;1.02;;
78873;SDS011;68250;43.514;1.494;2023-08-08T05:43:04;4.80;;;1.20;;
78873;SDS011;68250;43.514;1.494;2023-08-08T05:45:30;4.55;;;1.30;;
78873;SDS011;68250;43.514;1.494;2023-08-08T05:47:56;5.30;;;1.10;;
78873;SDS011;68250;43.514;1.494;2023-08-08T05:50:22;4.88;;;1.30;;
78873;SDS011;68250;43.514;1.494;2023-08-08T05:52:48;4.43;;;0.93;;
78873;SDS011;68250;43.514;1.494;2023-08-08T05:55:13;4.37;;;1.30;;
78873;SDS011;68250;43.514;1.494;2023-08-08T05:57:39;6.25;;;1.42;;
78873;SDS011;68250;43.514;1.494;2023-08-08T06:00:05;4.57;;;1.20;;
78873;SDS011;68250;43.514;1.494;2023-08-08T06:02:33;5.97;;;1.25;;
78873;SDS011;68250;43.514;1.494;2023-08-08T06:04:59;5.68;;;1.30;;
78873;SDS011;68250;43.514;1.494;2023-08-08T06:07:24;7.90;;;1.50;;
78873;SDS011;68250;43.514;1.494;2023-08-08T06:09:50;5.30;;;1.40;;
78873;SDS011;68250;43.514;1.494;2023-08-08T06:12:15;6.10;;;1.35;;
78873;SDS011;68250;43.514;1.494;2023-08-08T06:14:41;4.60;;;1.30;;
78873;SDS011;68250;43.514;1.494;2023-08-08T06:17:07;4.65;;;1.20;;
78873;SDS011;68250;43.514;1.494;2023-08-08T06:19:33;5.53;;;1.67;;
78873;SDS011;68250;43.514;1.494;2023-08-08T06:21:58;6.93;;;1.60;;
78873;SDS011;68250;43.514;1.494;2023-08-08T06:24:24;6.27;;;1.57;;
78873;SDS011;68250;43.514;1.494;2023-08-08T06:26:49;5.85;;;1.50;;
78873;SDS011;68250;43.514;1.494;2023-08-08T06:29:15;5.40;;;1.70;;
78873;SDS011;68250;43.514;1.494;2023-08-08T06:31:41;4.38;;;1.60;;
78873;SDS011;68250;43.514;1.494;2023-08-08T06:34:07;4.73;;;1.40;;
78873;SDS011;68250;43.514;1.494;2023-08-08T06:36:32;4.30;;;1.40;;
78873;SDS011;68250;43.514;1.494;2023-08-08T06:38:58;4.43;;;1.40;;
78873;SDS011;68250;43.514;1.494;2023-08-08T06:41:24;4.93;;;1.38;;
78873;SDS011;68250;43.514;1.494;2023-08-08T06:43:49;4.75;;;1.55;;
78873;SDS011;68250;43.514;1.494;2023-08-08T06:46:15;7.73;;;1.80;;
78873;SDS011;68250;43.514;1.494;2023-08-08T06:48:42;9.38;;;1.65;;
78873;SDS011;68250;43.514;1.494;2023-08-08T06:51:08;4.18;;;1.48;;
78873;SDS011;68250;43.514;1.494;2023-08-08T06:53:34;4.90;;;1.55;;
78873;SDS011;68250;43.514;1.494;2023-08-08T06:55:59;6.77;;;1.47;;
78873;SDS011;68250;43.514;1.494;2023-08-08T06:58:25;4.88;;;1.88;;
78873;SDS011;68250;43.514;1.494;2023-08-08T07:00:50;6.10;;;1.70;;
78873;SDS011;68250;43.514;1.494;2023-08-08T07:03:16;8.45;;;1.75;;
78873;SDS011;68250;43.514;1.494;2023-08-08T07:05:42;6.23;;;1.77;;
78873;SDS011;68250;43.514;1.494;2023-08-08T07:08:07;6.00;;;1.67;;
78873;SDS011;68250;43.514;1.494;2023-08-08T07:10:34;6.32;;;1.80;;
78873;SDS011;68250;43.514;1.494;2023-08-08T07:13:00;6.70;;;1.73;;
78873;SDS011;68250;43.514;1.494;2023-08-08T07:15:26;4.80;;;1.58;;
78873;SDS011;68250;43.514;1.494;2023-08-08T07:17:53;4.47;;;1.60;;
78873;SDS011;68250;43.514;1.494;2023-08-08T07:20:19;7.93;;;1.63;;
78873;SDS011;68250;43.514;1.494;2023-08-08T07:22:44;5.40;;;1.55;;
78873;SDS011;68250;43.514;1.494;2023-08-08T07:25:10;6.73;;;1.37;;
78873;SDS011;68250;43.514;1.494;2023-08-08T07:27:36;6.32;;;1.60;;
78873;SDS011;68250;43.514;1.494;2023-08-08T07:30:03;5.25;;;1.70;;
78873;SDS011;68250;43.514;1.494;2023-08-08T07:32:29;5.47;;;1.70;;
78873;SDS011;68250;43.514;1.494;2023-08-08T07:34:55;5.73;;;1.50;;
78873;SDS011;68250;43.514;1.494;2023-08-08T07:37:20;6.15;;;1.70;;
78873;SDS011;68250;43.514;1.494;2023-08-08T07:39:49;5.30;;;1.63;;
78873;SDS011;68250;43.514;1.494;2023-08-08T07:42:16;6.15;;;1.60;;
78873;SDS011;68250;43.514;1.494;2023-08-08T07:44:42;7.43;;;1.50;;
78873;SDS011;68250;43.514;1.494;2023-08-08T07:47:07;4.93;;;1.60;;
78873;SDS011;68250;43.514;1.494;2023-08-08T07:49:33;4.57;;;1.53;;
78873;SDS011;68250;43.514;1.494;2023-08-08T07:51:59;5.43;;;1.60;;
78873;SDS011;68250;43.514;1.494;2023-08-08T07:54:24;4.45;;;1.60;;
78873;SDS011;68250;43.514;1.494;2023-08-08T07:56:50;6.30;;;1.63;;
78873;SDS011;68250;43.514;1.494;2023-08-08T07:59:15;5.88;;;1.60;;
78873;SDS011;68250;43.514;1.494;2023-08-08T08:01:41;6.93;;;1.60;;
78873;SDS011;68250;43.514;1.494;2023-08-08T08:04:07;4.47;;;1.60;;
78873;SDS011;68250;43.514;1.494;2023-08-08T08:06:32;5.13;;;1.52;;
78873;SDS011;68250;43.514;1.494;2023-08-08T08:08:58;6.03;;;1.50;;
78873;SDS011;68250;43.514;1.494;2023-08-08T08:11:24;4.90;;;1.52;;
78873;SDS011;68250;43.514;1.494;2023-08-08T08:13:49;5.47;;;1.60;;
78873;SDS011;68250;43.514;1.494;2023-08-08T08:16:15;6.35;;;1.38;;
78873;SDS011;68250;43.514;1.494;2023-08-08T08:18:41;6.70;;;1.40;;
78873;SDS011;68250;43.514;1.494;2023-08-08T08:21:07;4.35;;;1.17;;
78873;SDS011;68250;43.514;1.494;2023-08-08T08:23:33;5.73;;;1.60;;
78873;SDS011;68250;43.514;1.494;2023-08-08T08:25:59;5.40;;;1.38;;
78873;SDS011;68250;43.514;1.494;2023-08-08T08:28:25;5.30;;;1.55;;
78873;SDS011;68250;43.514;1.494;2023-08-08T08:30:51;5.17;;;1.33;;
78873;SDS011;68250;43.514;1.494;2023-08-08T08:33:17;4.20;;;1.20;;
78873;SDS011;68250;43.514;1.494;2023-08-08T08:35:42;5.37;;;1.30;;
78873;SDS011;68250;43.514;1.494;2023-08-08T08:38:09;4.47;;;1.30;;
78873;SDS011;68250;43.514;1.494;2023-08-08T08:40:39;3.67;;;1.10;;
78873;SDS011;68250;43.514;1.494;2023-08-08T08:43:06;4.93;;;1.40;;
78873;SDS011;68250;43.514;1.494;2023-08-08T08:45:32;4.13;;;1.10;;
78873;SDS011;68250;43.514;1.494;2023-08-08T08:48:02;4.78;;;1.10;;
78873;SDS011;68250;43.514;1.494;2023-08-08T08:50:29;5.60;;;1.30;;
78873;SDS011;68250;43.514;1.494;2023-08-08T08:52:56;5.38;;;1.15;;
78873;SDS011;68250;43.514;1.494;2023-08-08T08:55:22;5.87;;;1.20;;
78873;SDS011;68250;43.514;1.494;2023-08-08T08:57:48;5.00;;;1.20;;
78873;SDS011;68250;43.514;1.494;2023-08-08T09:00:14;4.47;;;1.30;;
78873;SDS011;68250;43.514;1.494;2023-08-08T09:02:41;4.15;;;1.10;;
78873;SDS011;68250;43.514;1.494;2023-08-08T09:05:06;4.53;;;1.10;;
78873;SDS011;68250;43.514;1.494;2023-08-08T09:07:32;4.43;;;1.53;;
78873;SDS011;68250;43.514;1.494;2023-08-08T09:09:58;4.25;;;1.20;;
78873;SDS011;68250;43.514;1.494;2023-08-08T09:12:24;4.50;;;1.10;;
78873;SDS011;68250;43.514;1.494;2023-08-08T09:14:54;5.75;;;1.17;;
78873;SDS011;68250;43.514;1.494;2023-08-08T09:17:21;4.78;;;1.02;;
78873;SDS011;68250;43.514;1.494;2023-08-08T09:19:47;3.73;;;1.03;;
78873;SDS011;68250;43.514;1.494;2023-08-08T09:22:13;5.70;;;1.55;;
78873;SDS011;68250;43.514;1.494;2023-08-08T09:24:39;6.83;;;1.20;;
78873;SDS011;68250;43.514;1.494;2023-08-08T09:27:08;6.00;;;1.20;;
78873;SDS011;68250;43.514;1.494;2023-08-08T09:29:35;3.63;;;1.10;;
78873;SDS011;68250;43.514;1.494;2023-08-08T09:32:04;5.13;;;1.10;;
78873;SDS011;68250;43.514;1.494;2023-08-08T09:34:31;4.35;;;1.02;;
78873;SDS011;68250;43.514;1.494;2023-08-08T09:36:57;4.10;;;1.10;;
78873;SDS011;68250;43.514;1.494;2023-08-08T09:39:23;7.18;;;1.30;;
78873;SDS011;68250;43.514;1.494;2023-08-08T09:41:49;3.80;;;1.10;;
78873;SDS011;68250;43.514;1.494;2023-08-08T09:44:15;6.50;;;1.20;;
78873;SDS011;68250;43.514;1.494;2023-08-08T09:46:41;5.00;;;1.13;;
78873;SDS011;68250;43.514;1.494;2023-08-08T09:49:08;5.67;;;1.30;;
78873;SDS011;68250;43.514;1.494;2023-08-08T09:51:36;7.00;;;1.27;;
78873;SDS011;68250;43.514;1.494;2023-08-08T09:54:03;5.78;;;1.65;;
78873;SDS011;68250;43.514;1.494;2023-08-08T09:56:32;6.10;;;1.30;;
78873;SDS011;68250;43.514;1.494;2023-08-08T09:58:58;5.85;;;1.13;;
78873;SDS011;68250;43.514;1.494;2023-08-08T10:01:24;4.90;;;1.20;;
78873;SDS011;68250;43.514;1.494;2023-08-08T10:03:51;6.07;;;1.50;;
78873;SDS011;68250;43.514;1.494;2023-08-08T10:06:17;4.30;;;1.27;;
78873;SDS011;68250;43.514;1.494;2023-08-08T10:08:43;6.43;;;1.67;;
78873;SDS011;68250;43.514;1.494;2023-08-08T10:11:10;5.40;;;1.30;;
78873;SDS011;68250;43.514;1.494;2023-08-08T10:13:36;6.77;;;1.40;;
78873;SDS011;68250;43.514;1.494;2023-08-08T10:16:08;5.30;;;1.25;;
78873;SDS011;68250;43.514;1.494;2023-08-08T10:18:34;5.38;;;1.30;;
78873;SDS011;68250;43.514;1.494;2023-08-08T10:21:00;4.30;;;1.27;;
78873;SDS011;68250;43.514;1.494;2023-08-08T10:23:26;4.18;;;1.10;;
78873;SDS011;68250;43.514;1.494;2023-08-08T10:25:52;5.57;;;1.42;;
78873;SDS011;68250;43.514;1.494;2023-08-08T10:28:21;4.57;;;1.50;;
78873;SDS011;68250;43.514;1.494;2023-08-08T10:33:23;5.30;;;1.50;;
78873;SDS011;68250;43.514;1.494;2023-08-08T10:38:22;5.53;;;1.50;;
78873;SDS011;68250;43.514;1.494;2023-08-08T10:40:53;4.37;;;1.40;;
78873;SDS011;68250;43.514;1.494;2023-08-08T10:43:26;4.88;;;1.50;;
78873;SDS011;68250;43.514;1.494;2023-08-08T10:45:56;3.80;;;1.40;;
78873;SDS011;68250;43.514;1.494;2023-08-08T10:48:23;4.65;;;1.52;;
78873;SDS011;68250;43.514;1.494;2023-08-08T10:50:49;5.77;;;1.50;;
78873;SDS011;68250;43.514;1.494;2023-08-08T10:53:15;5.57;;;1.20;;
78873;SDS011;68250;43.514;1.494;2023-08-08T10:55:41;5.20;;;1.20;;
78873;SDS011;68250;43.514;1.494;2023-08-08T10:58:09;4.13;;;1.40;;
78873;SDS011;68250;43.514;1.494;2023-08-08T11:00:37;5.13;;;1.58;;
78873;SDS011;68250;43.514;1.494;2023-08-08T11:03:06;4.47;;;1.50;;
78873;SDS011;68250;43.514;1.494;2023-08-08T11:05:35;4.70;;;1.50;;
78873;SDS011;68250;43.514;1.494;2023-08-08T11:08:02;5.95;;;1.55;;
78873;SDS011;68250;43.514;1.494;2023-08-08T11:10:29;5.17;;;1.63;;
78873;SDS011;68250;43.514;1.494;2023-08-08T11:15:27;8.82;;;1.77;;
78873;SDS011;68250;43.514;1.494;2023-08-08T11:17:53;6.03;;;1.65;;
78873;SDS011;68250;43.514;1.494;2023-08-08T11:20:21;4.97;;;1.70;;
78873;SDS011;68250;43.514;1.494;2023-08-08T11:22:50;5.50;;;1.60;;
78873;SDS011;68250;43.514;1.494;2023-08-08T11:25:20;5.45;;;1.38;;
78873;SDS011;68250;43.514;1.494;2023-08-08T11:27:49;4.13;;;1.50;;
78873;SDS011;68250;43.514;1.494;2023-08-08T11:30:18;5.00;;;1.70;;
78873;SDS011;68250;43.514;1.494;2023-08-08T11:32:45;4.00;;;1.30;;
78873;SDS011;68250;43.514;1.494;2023-08-08T11:35:12;6.95;;;1.85;;
78873;SDS011;68250;43.514;1.494;2023-08-08T11:37:41;5.18;;;1.45;;
78873;SDS011;68250;43.514;1.494;2023-08-08T11:40:06;7.87;;;1.43;;
78873;SDS011;68250;43.514;1.494;2023-08-08T11:42:33;6.47;;;1.67;;
78873;SDS011;68250;43.514;1.494;2023-08-08T11:45:00;4.60;;;1.15;;
78873;SDS011;68250;43.514;1.494;2023-08-08T11:47:25;5.30;;;1.55;;
78873;SDS011;68250;43.514;1.494;2023-08-08T11:49:58;5.60;;;1.47;;
78873;SDS011;68250;43.514;1.494;2023-08-08T11:52:24;5.78;;;1.50;;
78873;SDS011;68250;43.514;1.494;2023-08-08T11:54:51;4.27;;;1.40;;
78873;SDS011;68250;43.514;1.494;2023-08-08T11:57:17;4.28;;;1.40;;
78873;SDS011;68250;43.514;1.494;2023-08-08T11:59:43;5.00;;;1.70;;
78873;SDS011;68250;43.514;1.494;2023-08-08T12:02:09;6.63;;;1.57;;
78873;SDS011;68250;43.514;1.494;2023-08-08T12:04:35;4.50;;;1.58;;
78873;SDS011;68250;43.514;1.494;2023-08-08T12:07:01;4.50;;;1.60;;
78873;SDS011;68250;43.514;1.494;2023-08-08T12:09:29;6.03;;;1.58;;
78873;SDS011;68250;43.514;1.494;2023-08-08T12:12:01;4.40;;;1.60;;
78873;SDS011;68250;43.514;1.494;2023-08-08T12:14:27;6.40;;;1.92;;
78873;SDS011;68250;43.514;1.494;2023-08-08T12:16:54;5.22;;;1.83;;
78873;SDS011;68250;43.514;1.494;2023-08-08T12:19:22;5.53;;;1.63;;
78873;SDS011;68250;43.514;1.494;2023-08-08T12:21:49;5.80;;;1.77;;
78873;SDS011;68250;43.514;1.494;2023-08-08T12:24:16;5.55;;;1.58;;
78873;SDS011;68250;43.514;1.494;2023-08-08T12:26:42;4.22;;;1.90;;
78873;SDS011;68250;43.514;1.494;2023-08-08T12:29:08;5.17;;;1.70;;
78873;SDS011;68250;43.514;1.494;2023-08-08T12:31:34;6.28;;;1.52;;
78873;SDS011;68250;43.514;1.494;2023-08-08T12:34:00;5.40;;;1.50;;
78873;SDS011;68250;43.514;1.494;2023-08-08T12:36:25;4.47;;;1.60;;
78873;SDS011;68250;43.514;1.494;2023-08-08T12:38:51;5.90;;;2.03;;
78873;SDS011;68250;43.514;1.494;2023-08-08T12:41:17;5.83;;;2.00;;
78873;SDS011;68250;43.514;1.494;2023-08-08T12:43:42;9.60;;;2.13;;
78873;SDS011;68250;43.514;1.494;2023-08-08T12:46:08;5.60;;;1.90;;
78873;SDS011;68250;43.514;1.494;2023-08-08T12:48:34;5.13;;;1.77;;
78873;SDS011;68250;43.514;1.494;2023-08-08T12:50:59;4.70;;;1.83;;
78873;SDS011;68250;43.514;1.494;2023-08-08T12:53:25;6.30;;;2.00;;
78873;SDS011;68250;43.514;1.494;2023-08-08T12:55:51;6.13;;;1.85;;
78873;SDS011;68250;43.514;1.494;2023-08-08T12:58:17;7.00;;;1.90;;
78873;SDS011;68250;43.514;1.494;2023-08-08T13:00:43;5.32;;;1.92;;
78873;SDS011;68250;43.514;1.494;2023-08-08T13:03:08;4.82;;;1.80;;
78873;SDS011;68250;43.514;1.494;2023-08-08T13:05:35;5.10;;;1.92;;
78873;SDS011;68250;43.514;1.494;2023-08-08T13:08:01;6.40;;;1.83;;
78873;SDS011;68250;43.514;1.494;2023-08-08T13:10:26;5.53;;;2.07;;
78873;SDS011;68250;43.514;1.494;2023-08-08T13:12:52;7.43;;;2.17;;
78873;SDS011;68250;43.514;1.494;2023-08-08T13:15:18;4.93;;;1.73;;
78873;SDS011;68250;43.514;1.494;2023-08-08T13:17:44;5.05;;;1.60;;
78873;SDS011;68250;43.514;1.494;2023-08-08T13:20:10;5.40;;;1.98;;
78873;SDS011;68250;43.514;1.494;2023-08-08T13:22:37;7.47;;;1.90;;
78873;SDS011;68250;43.514;1.494;2023-08-08T13:25:03;4.75;;;2.00;;
78873;SDS011;68250;43.514;1.494;2023-08-08T13:27:30;4.78;;;1.95;;
78873;SDS011;68250;43.514;1.494;2023-08-08T13:29:56;6.38;;;2.00;;
78873;SDS011;68250;43.514;1.494;2023-08-08T13:32:22;6.22;;;1.90;;
78873;SDS011;68250;43.514;1.494;2023-08-08T13:34:48;5.70;;;2.10;;
78873;SDS011;68250;43.514;1.494;2023-08-08T13:37:15;6.30;;;2.08;;
78873;SDS011;68250;43.514;1.494;2023-08-08T13:39:41;5.80;;;2.08;;
78873;SDS011;68250;43.514;1.494;2023-08-08T13:42:08;5.60;;;1.90;;
78873;SDS011;68250;43.514;1.494;2023-08-08T13:44:34;7.22;;;1.88;;
78873;SDS011;68250;43.514;1.494;2023-08-08T13:46:59;5.03;;;1.70;;
78873;SDS011;68250;43.514;1.494;2023-08-08T13:49:25;6.65;;;2.10;;
78873;SDS011;68250;43.514;1.494;2023-08-08T13:51:52;5.68;;;1.95;;
78873;SDS011;68250;43.514;1.494;2023-08-08T13:54:19;5.90;;;2.20;;
78873;SDS011;68250;43.514;1.494;2023-08-08T13:56:44;4.75;;;1.92;;
78873;SDS011;68250;43.514;1.494;2023-08-08T13:59:10;4.50;;;1.83;;
78873;SDS011;68250;43.514;1.494;2023-08-08T14:01:36;4.30;;;1.83;;
78873;SDS011;68250;43.514;1.494;2023-08-08T14:04:02;6.55;;;2.00;;
78873;SDS011;68250;43.514;1.494;2023-08-08T14:06:27;5.10;;;1.70;;
78873;SDS011;68250;43.514;1.494;2023-08-08T14:08:54;8.60;;;2.10;;
78873;SDS011;68250;43.514;1.494;2023-08-08T14:11:20;5.07;;;2.00;;
78873;SDS011;68250;43.514;1.494;2023-08-08T14:13:45;5.77;;;2.10;;
78873;SDS011;68250;43.514;1.494;2023-08-08T14:16:11;5.75;;;2.42;;
78873;SDS011;68250;43.514;1.494;2023-08-08T14:18:37;5.77;;;2.17;;
78873;SDS011;68250;43.514;1.494;2023-08-08T14:21:02;4.97;;;1.88;;
78873;SDS011;68250;43.514;1.494;2023-08-08T14:23:29;4.97;;;1.75;;
78873;SDS011;68250;43.514;1.494;2023-08-08T14:25:55;5.20;;;2.00;;
78873;SDS011;68250;43.514;1.494;2023-08-08T14:28:21;4.60;;;1.90;;
78873;SDS011;68250;43.514;1.494;2023-08-08T14:30:46;4.80;;;1.90;;
78873;SDS011;68250;43.514;1.494;2023-08-08T14:33:13;4.97;;;2.10;;
78873;SDS011;68250;43.514;1.494;2023-08-08T14:35:39;6.50;;;2.20;;
78873;SDS011;68250;43.514;1.494;2023-08-08T14:38:05;6.13;;;2.00;;
78873;SDS011;68250;43.514;1.494;2023-08-08T14:40:30;6.67;;;2.20;;
78873;SDS011;68250;43.514;1.494;2023-08-08T14:42:57;6.70;;;2.05;;
78873;SDS011;68250;43.514;1.494;2023-08-08T14:45:23;5.13;;;1.95;;
78873;SDS011;68250;43.514;1.494;2023-08-08T14:47:49;8.85;;;2.05;;
78873;SDS011;68250;43.514;1.494;2023-08-08T14:50:15;5.03;;;2.10;;
78873;SDS011;68250;43.514;1.494;2023-08-08T14:52:41;4.55;;;1.85;;
78873;SDS011;68250;43.514;1.494;2023-08-08T14:55:07;7.20;;;2.00;;
78873;SDS011;68250;43.514;1.494;2023-08-08T14:57:33;5.10;;;1.92;;
78873;SDS011;68250;43.514;1.494;2023-08-08T14:59:59;5.87;;;2.20;;
78873;SDS011;68250;43.514;1.494;2023-08-08T15:02:27;5.07;;;1.80;;
78873;SDS011;68250;43.514;1.494;2023-08-08T15:04:53;4.93;;;1.80;;
78873;SDS011;68250;43.514;1.494;2023-08-08T15:07:19;4.78;;;2.10;;
78873;SDS011;68250;43.514;1.494;2023-08-08T15:09:44;5.53;;;1.70;;
78873;SDS011;68250;43.514;1.494;2023-08-08T15:12:12;6.13;;;1.90;;
78873;SDS011;68250;43.514;1.494;2023-08-08T15:14:40;5.68;;;1.90;;